sensor_id;sensor_type;location;lat;lon;timestamp;P1;durP1;ratioP1;P2;durP2;ratioP2
9970;SDS011;5026;51.494;11.974;2023-04-07T00:01:49;15.57;;;10.63;;
9970;SDS011;5026;51.494;11.974;2023-04-07T00:04:16;16.67;;;10.83;;
9970;SDS011;5026;51.494;11.974;2023-04-07T00:06:43;16.37;;;11.03;;
9970;SDS011;5026;51.494;11.974;2023-04-07T00:09:10;17.60;;;10.60;;
9970;SDS011;5026;51.494;11.974;2023-04-07T00:11:37;19.50;;;11.23;;
9970;SDS011;5026;51.494;11.974;2023-04-07T00:14:05;15.00;;;10.63;;
9970;SDS011;5026;51.494;11.974;2023-04-07T00:16:32;13.20;;;9.77;;
9970;SDS011;5026;51.494;11.974;2023-04-07T00:18:59;16.77;;;11.47;;
9970;SDS011;5026;51.494;11.974;2023-04-07T00:21:26;16.83;;;10.67;;
9970;SDS011;5026;51.494;11.974;2023-04-07T00:23:53;16.07;;;11.10;;
9970;SDS011;5026;51.494;11.974;2023-04-07T00:26:21;15.77;;;11.07;;
9970;SDS011;5026;51.494;11.974;2023-04-07T00:28:49;15.77;;;10.30;;
9970;SDS011;5026;51.494;11.974;2023-04-07T00:31:17;20.93;;;10.27;;
9970;SDS011;5026;51.494;11.974;2023-04-07T00:33:44;17.60;;;11.80;;
9970;SDS011;5026;51.494;11.974;2023-04-07T00:36:13;16.50;;;10.63;;
9970;SDS011;5026;51.494;11.974;2023-04-07T00:38:40;16.93;;;11.03;;
9970;SDS011;5026;51.494;11.974;2023-04-07T00:41:07;16.80;;;10.67;;
9970;SDS011;5026;51.494;11.974;2023-04-07T00:43:34;15.70;;;10.77;;
9970;SDS011;5026;51.494;11.974;2023-04-07T00:46:01;13.67;;;10.17;;
9970;SDS011;5026;51.494;11.974;2023-04-07T00:48:29;15.93;;;9.97;;
9970;SDS011;5026;51.494;11.974;2023-04-07T00:50:56;15.67;;;10.87;;
9970;SDS011;5026;51.494;11.974;2023-04-07T00:53:23;22.70;;;11.47;;
9970;SDS011;5026;51.494;11.974;2023-04-07T00:55:50;15.10;;;10.57;;
9970;SDS011;5026;51.494;11.974;2023-04-07T00:58:17;17.57;;;10.90;;
9970;SDS011;5026;51.494;11.974;2023-04-07T01:00:52;13.20;;;9.27;;
9970;SDS011;5026;51.494;11.974;2023-04-07T01:03:24;14.20;;;10.43;;
9970;SDS011;5026;51.494;11.974;2023-04-07T01:05:59;18.80;;;10.83;;
9970;SDS011;5026;51.494;11.974;2023-04-07T01:08:29;14.20;;;10.03;;
9970;SDS011;5026;51.494;11.974;2023-04-07T01:11:02;15.03;;;9.70;;
9970;SDS011;5026;51.494;11.974;2023-04-07T01:13:35;18.23;;;10.77;;
9970;SDS011;5026;51.494;11.974;2023-04-07T01:16:07;17.47;;;10.60;;
9970;SDS011;5026;51.494;11.974;2023-04-07T01:18:39;16.23;;;11.23;;
9970;SDS011;5026;51.494;11.974;2023-04-07T01:21:06;15.43;;;10.37;;
9970;SDS011;5026;51.494;11.974;2023-04-07T01:23:54;15.87;;;10.60;;
9970;SDS011;5026;51.494;11.974;2023-04-07T01:26:30;17.23;;;10.90;;
9970;SDS011;5026;51.494;11.974;2023-04-07T01:31:59;15.23;;;10.43;;
9970;SDS011;5026;51.494;11.974;2023-04-07T01:34:28;16.50;;;10.77;;
9970;SDS011;5026;51.494;11.974;2023-04-07T01:36:56;18.80;;;12.30;;
9970;SDS011;5026;51.494;11.974;2023-04-07T01:39:26;16.20;;;11.40;;
9970;SDS011;5026;51.494;11.974;2023-04-07T01:41:54;17.60;;;11.97;;
9970;SDS011;5026;51.494;11.974;2023-04-07T01:44:22;17.07;;;11.67;;
9970;SDS011;5026;51.494;11.974;2023-04-07T01:46:52;19.77;;;12.27;;
9970;SDS011;5026;51.494;11.974;2023-04-07T01:49:21;18.00;;;12.07;;
9970;SDS011;5026;51.494;11.974;2023-04-07T01:51:50;16.93;;;11.07;;
9970;SDS011;5026;51.494;11.974;2023-04-07T01:54:17;17.83;;;11.20;;
9970;SDS011;5026;51.494;11.974;2023-04-07T01:56:45;17.20;;;12.10;;
9970;SDS011;5026;51.494;11.974;2023-04-07T01:59:12;17.13;;;11.83;;
9970;SDS011;5026;51.494;11.974;2023-04-07T02:01:39;17.13;;;12.07;;
9970;SDS011;5026;51.494;11.974;2023-04-07T02:04:10;16.07;;;11.47;;
9970;SDS011;5026;51.494;11.974;2023-04-07T02:06:42;18.37;;;11.63;;
9970;SDS011;5026;51.494;11.974;2023-04-07T02:09:15;17.67;;;11.87;;
9970;SDS011;5026;51.494;11.974;2023-04-07T02:11:45;16.73;;;11.67;;
9970;SDS011;5026;51.494;11.974;2023-04-07T02:14:12;15.20;;;11.27;;
9970;SDS011;5026;51.494;11.974;2023-04-07T02:16:41;17.90;;;12.23;;
9970;SDS011;5026;51.494;11.974;2023-04-07T02:19:11;15.83;;;11.03;;
9970;SDS011;5026;51.494;11.974;2023-04-07T02:21:38;18.27;;;12.47;;
9970;SDS011;5026;51.494;11.974;2023-04-07T02:24:06;18.97;;;12.23;;
9970;SDS011;5026;51.494;11.974;2023-04-07T02:26:33;17.33;;;11.37;;
9970;SDS011;5026;51.494;11.974;2023-04-07T02:29:01;20.37;;;11.87;;
9970;SDS011;5026;51.494;11.974;2023-04-07T02:31:28;17.30;;;11.10;;
9970;SDS011;5026;51.494;11.974;2023-04-07T02:33:54;17.53;;;12.13;;
9970;SDS011;5026;51.494;11.974;2023-04-07T02:36:23;19.13;;;11.67;;
9970;SDS011;5026;51.494;11.974;2023-04-07T02:38:50;15.40;;;11.23;;
9970;SDS011;5026;51.494;11.974;2023-04-07T02:41:17;14.47;;;10.73;;
9970;SDS011;5026;51.494;11.974;2023-04-07T02:43:44;17.17;;;11.20;;
9970;SDS011;5026;51.494;11.974;2023-04-07T02:46:11;19.37;;;10.97;;
9970;SDS011;5026;51.494;11.974;2023-04-07T02:48:37;17.83;;;12.17;;
9970;SDS011;5026;51.494;11.974;2023-04-07T02:51:05;15.93;;;11.60;;
9970;SDS011;5026;51.494;11.974;2023-04-07T02:53:33;18.13;;;11.40;;
9970;SDS011;5026;51.494;11.974;2023-04-07T02:56:00;14.57;;;10.90;;
9970;SDS011;5026;51.494;11.974;2023-04-07T02:58:27;15.47;;;11.00;;
9970;SDS011;5026;51.494;11.974;2023-04-07T03:00:54;15.77;;;11.03;;
9970;SDS011;5026;51.494;11.974;2023-04-07T03:03:21;15.83;;;10.13;;
9970;SDS011;5026;51.494;11.974;2023-04-07T03:05:47;16.73;;;10.20;;
9970;SDS011;5026;51.494;11.974;2023-04-07T03:08:14;16.40;;;11.57;;
9970;SDS011;5026;51.494;11.974;2023-04-07T03:10:43;14.73;;;11.40;;
9970;SDS011;5026;51.494;11.974;2023-04-07T03:13:10;16.03;;;11.33;;
9970;SDS011;5026;51.494;11.974;2023-04-07T03:15:40;16.50;;;10.20;;
9970;SDS011;5026;51.494;11.974;2023-04-07T03:18:07;16.03;;;10.87;;
9970;SDS011;5026;51.494;11.974;2023-04-07T03:20:35;17.10;;;10.87;;
9970;SDS011;5026;51.494;11.974;2023-04-07T03:23:02;20.13;;;11.53;;
9970;SDS011;5026;51.494;11.974;2023-04-07T03:25:29;17.50;;;10.37;;
9970;SDS011;5026;51.494;11.974;2023-04-07T03:27:58;13.57;;;9.90;;
9970;SDS011;5026;51.494;11.974;2023-04-07T03:30:25;15.60;;;10.70;;
9970;SDS011;5026;51.494;11.974;2023-04-07T03:32:51;15.17;;;10.53;;
9970;SDS011;5026;51.494;11.974;2023-04-07T03:35:18;13.67;;;10.30;;
9970;SDS011;5026;51.494;11.974;2023-04-07T03:37:45;15.10;;;10.77;;
9970;SDS011;5026;51.494;11.974;2023-04-07T03:40:12;13.57;;;11.07;;
9970;SDS011;5026;51.494;11.974;2023-04-07T03:42:39;16.97;;;11.30;;
9970;SDS011;5026;51.494;11.974;2023-04-07T03:45:08;15.93;;;11.53;;
9970;SDS011;5026;51.494;11.974;2023-04-07T03:47:35;20.13;;;12.40;;
9970;SDS011;5026;51.494;11.974;2023-04-07T03:50:02;16.50;;;11.03;;
9970;SDS011;5026;51.494;11.974;2023-04-07T03:52:30;16.20;;;10.57;;
9970;SDS011;5026;51.494;11.974;2023-04-07T03:54:56;19.40;;;10.97;;
9970;SDS011;5026;51.494;11.974;2023-04-07T03:57:23;15.00;;;11.17;;
9970;SDS011;5026;51.494;11.974;2023-04-07T03:59:51;15.87;;;11.10;;
9970;SDS011;5026;51.494;11.974;2023-04-07T04:02:20;14.73;;;10.57;;
9970;SDS011;5026;51.494;11.974;2023-04-07T04:04:47;14.83;;;10.70;;
9970;SDS011;5026;51.494;11.974;2023-04-07T04:07:14;16.20;;;11.13;;
9970;SDS011;5026;51.494;11.974;2023-04-07T04:09:41;18.30;;;11.27;;
9970;SDS011;5026;51.494;11.974;2023-04-07T04:12:08;16.37;;;11.33;;
9970;SDS011;5026;51.494;11.974;2023-04-07T04:14:35;19.40;;;11.67;;
9970;SDS011;5026;51.494;11.974;2023-04-07T04:17:02;17.63;;;11.40;;
9970;SDS011;5026;51.494;11.974;2023-04-07T04:19:30;16.50;;;10.93;;
9970;SDS011;5026;51.494;11.974;2023-04-07T04:21:57;15.87;;;10.53;;
9970;SDS011;5026;51.494;11.974;2023-04-07T04:24:24;15.70;;;10.60;;
9970;SDS011;5026;51.494;11.974;2023-04-07T04:26:51;17.70;;;11.40;;
9970;SDS011;5026;51.494;11.974;2023-04-07T04:29:18;16.70;;;11.10;;
9970;SDS011;5026;51.494;11.974;2023-04-07T04:31:45;16.53;;;10.97;;
9970;SDS011;5026;51.494;11.974;2023-04-07T04:34:12;14.97;;;10.67;;
9970;SDS011;5026;51.494;11.974;2023-04-07T04:36:40;13.70;;;10.33;;
9970;SDS011;5026;51.494;11.974;2023-04-07T04:39:07;16.63;;;11.47;;
9970;SDS011;5026;51.494;11.974;2023-04-07T04:41:34;16.00;;;10.90;;
9970;SDS011;5026;51.494;11.974;2023-04-07T04:44:01;19.17;;;11.40;;
9970;SDS011;5026;51.494;11.974;2023-04-07T04:46:28;16.03;;;9.97;;
9970;SDS011;5026;51.494;11.974;2023-04-07T04:48:55;16.90;;;11.43;;
9970;SDS011;5026;51.494;11.974;2023-04-07T04:51:22;17.97;;;10.73;;
9970;SDS011;5026;51.494;11.974;2023-04-07T04:53:51;15.27;;;11.43;;
9970;SDS011;5026;51.494;11.974;2023-04-07T04:56:18;15.07;;;10.80;;
9970;SDS011;5026;51.494;11.974;2023-04-07T04:58:45;17.07;;;11.53;;
9970;SDS011;5026;51.494;11.974;2023-04-07T05:01:12;17.47;;;12.20;;
9970;SDS011;5026;51.494;11.974;2023-04-07T05:03:39;20.00;;;11.70;;
9970;SDS011;5026;51.494;11.974;2023-04-07T05:06:06;17.30;;;11.23;;
9970;SDS011;5026;51.494;11.974;2023-04-07T05:08:33;17.77;;;11.37;;
9970;SDS011;5026;51.494;11.974;2023-04-07T05:11:01;17.23;;;11.93;;
9970;SDS011;5026;51.494;11.974;2023-04-07T05:13:28;18.27;;;11.90;;
9970;SDS011;5026;51.494;11.974;2023-04-07T05:15:55;18.67;;;11.13;;
9970;SDS011;5026;51.494;11.974;2023-04-07T05:18:22;17.40;;;10.80;;
9970;SDS011;5026;51.494;11.974;2023-04-07T05:20:49;15.90;;;11.77;;
9970;SDS011;5026;51.494;11.974;2023-04-07T05:23:16;16.37;;;11.50;;
9970;SDS011;5026;51.494;11.974;2023-04-07T05:25:43;16.70;;;11.67;;
9970;SDS011;5026;51.494;11.974;2023-04-07T05:28:12;16.27;;;11.60;;
9970;SDS011;5026;51.494;11.974;2023-04-07T05:30:39;16.47;;;11.40;;
9970;SDS011;5026;51.494;11.974;2023-04-07T05:33:05;14.77;;;11.37;;
9970;SDS011;5026;51.494;11.974;2023-04-07T05:35:32;17.33;;;11.67;;
9970;SDS011;5026;51.494;11.974;2023-04-07T05:37:59;17.83;;;12.07;;
9970;SDS011;5026;51.494;11.974;2023-04-07T05:40:26;17.37;;;12.33;;
9970;SDS011;5026;51.494;11.974;2023-04-07T05:42:54;18.23;;;11.47;;
9970;SDS011;5026;51.494;11.974;2023-04-07T05:45:22;18.17;;;12.20;;
9970;SDS011;5026;51.494;11.974;2023-04-07T05:47:49;16.73;;;11.93;;
9970;SDS011;5026;51.494;11.974;2023-04-07T05:50:16;16.43;;;11.20;;
9970;SDS011;5026;51.494;11.974;2023-04-07T05:52:43;16.83;;;11.27;;
9970;SDS011;5026;51.494;11.974;2023-04-07T05:55:10;15.20;;;11.47;;
9970;SDS011;5026;51.494;11.974;2023-04-07T05:57:37;19.07;;;11.63;;
9970;SDS011;5026;51.494;11.974;2023-04-07T06:00:04;16.37;;;10.63;;
9970;SDS011;5026;51.494;11.974;2023-04-07T06:02:34;16.03;;;10.97;;
9970;SDS011;5026;51.494;11.974;2023-04-07T06:05:01;18.53;;;11.20;;
9970;SDS011;5026;51.494;11.974;2023-04-07T06:07:28;14.17;;;9.03;;
9970;SDS011;5026;51.494;11.974;2023-04-07T06:09:55;13.57;;;9.63;;
9970;SDS011;5026;51.494;11.974;2023-04-07T06:12:21;13.17;;;9.73;;
9970;SDS011;5026;51.494;11.974;2023-04-07T06:14:51;16.17;;;9.50;;
9970;SDS011;5026;51.494;11.974;2023-04-07T06:17:18;13.93;;;9.43;;
9970;SDS011;5026;51.494;11.974;2023-04-07T06:19:47;13.33;;;9.00;;
9970;SDS011;5026;51.494;11.974;2023-04-07T06:22:14;10.73;;;8.67;;
9970;SDS011;5026;51.494;11.974;2023-04-07T06:24:41;10.70;;;9.03;;
9970;SDS011;5026;51.494;11.974;2023-04-07T06:27:08;17.43;;;9.83;;
9970;SDS011;5026;51.494;11.974;2023-04-07T06:29:35;12.90;;;9.43;;
9970;SDS011;5026;51.494;11.974;2023-04-07T06:32:02;13.60;;;9.37;;
9970;SDS011;5026;51.494;11.974;2023-04-07T06:34:28;13.33;;;9.20;;
9970;SDS011;5026;51.494;11.974;2023-04-07T06:36:57;12.77;;;8.70;;
9970;SDS011;5026;51.494;11.974;2023-04-07T06:39:24;10.97;;;8.13;;
9970;SDS011;5026;51.494;11.974;2023-04-07T06:41:52;12.57;;;9.00;;
9970;SDS011;5026;51.494;11.974;2023-04-07T06:44:20;11.77;;;8.57;;
9970;SDS011;5026;51.494;11.974;2023-04-07T06:46:47;15.03;;;9.17;;
9970;SDS011;5026;51.494;11.974;2023-04-07T06:49:17;12.30;;;9.00;;
9970;SDS011;5026;51.494;11.974;2023-04-07T06:51:44;11.30;;;9.13;;
9970;SDS011;5026;51.494;11.974;2023-04-07T06:54:12;12.63;;;9.33;;
9970;SDS011;5026;51.494;11.974;2023-04-07T06:56:39;11.27;;;8.70;;
9970;SDS011;5026;51.494;11.974;2023-04-07T06:59:07;10.77;;;8.93;;
9970;SDS011;5026;51.494;11.974;2023-04-07T07:01:34;14.90;;;9.53;;
9970;SDS011;5026;51.494;11.974;2023-04-07T07:04:02;11.90;;;9.23;;
9970;SDS011;5026;51.494;11.974;2023-04-07T07:06:29;12.37;;;8.73;;
9970;SDS011;5026;51.494;11.974;2023-04-07T07:08:56;10.67;;;8.80;;
9970;SDS011;5026;51.494;11.974;2023-04-07T07:11:25;11.63;;;8.53;;
9970;SDS011;5026;51.494;11.974;2023-04-07T07:13:52;11.17;;;8.53;;
9970;SDS011;5026;51.494;11.974;2023-04-07T07:16:19;10.68;;;8.27;;
9970;SDS011;5026;51.494;11.974;2023-04-07T07:18:47;10.52;;;8.75;;
9970;SDS011;5026;51.494;11.974;2023-04-07T07:21:15;9.50;;;8.35;;
9970;SDS011;5026;51.494;11.974;2023-04-07T07:23:43;9.15;;;8.00;;
9970;SDS011;5026;51.494;11.974;2023-04-07T07:26:10;10.93;;;8.15;;
9970;SDS011;5026;51.494;11.974;2023-04-07T07:28:38;11.27;;;8.18;;
9970;SDS011;5026;51.494;11.974;2023-04-07T07:31:08;9.55;;;8.25;;
9970;SDS011;5026;51.494;11.974;2023-04-07T07:33:37;9.07;;;7.85;;
9970;SDS011;5026;51.494;11.974;2023-04-07T07:36:05;11.00;;;8.27;;
9970;SDS011;5026;51.494;11.974;2023-04-07T07:38:32;11.13;;;8.73;;
9970;SDS011;5026;51.494;11.974;2023-04-07T07:40:59;10.85;;;8.18;;
9970;SDS011;5026;51.494;11.974;2023-04-07T07:43:26;10.90;;;8.17;;
9970;SDS011;5026;51.494;11.974;2023-04-07T07:45:54;11.77;;;8.15;;
9970;SDS011;5026;51.494;11.974;2023-04-07T07:48:21;11.13;;;9.37;;
9970;SDS011;5026;51.494;11.974;2023-04-07T07:50:48;14.10;;;7.90;;
9970;SDS011;5026;51.494;11.974;2023-04-07T07:53:16;11.13;;;8.07;;
9970;SDS011;5026;51.494;11.974;2023-04-07T07:55:44;11.53;;;8.70;;
9970;SDS011;5026;51.494;11.974;2023-04-07T07:58:11;9.37;;;8.03;;
9970;SDS011;5026;51.494;11.974;2023-04-07T08:00:38;11.97;;;7.63;;
9970;SDS011;5026;51.494;11.974;2023-04-07T08:03:06;10.97;;;8.07;;
9970;SDS011;5026;51.494;11.974;2023-04-07T08:05:33;11.83;;;8.07;;
9970;SDS011;5026;51.494;11.974;2023-04-07T08:08:00;11.63;;;7.70;;
9970;SDS011;5026;51.494;11.974;2023-04-07T08:10:27;9.82;;;8.02;;
9970;SDS011;5026;51.494;11.974;2023-04-07T08:12:54;9.00;;;7.72;;
9970;SDS011;5026;51.494;11.974;2023-04-07T08:15:21;10.35;;;7.20;;
9970;SDS011;5026;51.494;11.974;2023-04-07T08:17:48;11.90;;;7.73;;
9970;SDS011;5026;51.494;11.974;2023-04-07T08:20:17;9.60;;;7.28;;
9970;SDS011;5026;51.494;11.974;2023-04-07T08:22:44;11.63;;;7.97;;
9970;SDS011;5026;51.494;11.974;2023-04-07T08:25:10;13.23;;;7.95;;
9970;SDS011;5026;51.494;11.974;2023-04-07T08:27:38;10.07;;;7.38;;
9970;SDS011;5026;51.494;11.974;2023-04-07T08:30:05;9.27;;;7.60;;
9970;SDS011;5026;51.494;11.974;2023-04-07T08:32:33;12.43;;;7.95;;
9970;SDS011;5026;51.494;11.974;2023-04-07T08:35:01;10.45;;;7.50;;
9970;SDS011;5026;51.494;11.974;2023-04-07T08:37:30;11.13;;;8.10;;
9970;SDS011;5026;51.494;11.974;2023-04-07T08:39:57;8.80;;;7.00;;
9970;SDS011;5026;51.494;11.974;2023-04-07T08:42:25;10.90;;;7.68;;
9970;SDS011;5026;51.494;11.974;2023-04-07T08:44:55;11.18;;;7.82;;
9970;SDS011;5026;51.494;11.974;2023-04-07T08:47:24;9.27;;;7.25;;
9970;SDS011;5026;51.494;11.974;2023-04-07T08:49:52;9.65;;;7.72;;
9970;SDS011;5026;51.494;11.974;2023-04-07T08:52:21;11.50;;;7.88;;
9970;SDS011;5026;51.494;11.974;2023-04-07T08:54:49;13.15;;;7.82;;
9970;SDS011;5026;51.494;11.974;2023-04-07T08:57:17;9.70;;;7.28;;
9970;SDS011;5026;51.494;11.974;2023-04-07T08:59:44;12.85;;;6.78;;
9970;SDS011;5026;51.494;11.974;2023-04-07T09:02:15;11.25;;;6.97;;
9970;SDS011;5026;51.494;11.974;2023-04-07T09:04:44;10.93;;;7.10;;
9970;SDS011;5026;51.494;11.974;2023-04-07T09:07:12;11.40;;;7.70;;
9970;SDS011;5026;51.494;11.974;2023-04-07T09:09:38;10.70;;;6.43;;
9970;SDS011;5026;51.494;11.974;2023-04-07T09:12:07;13.53;;;7.60;;
9970;SDS011;5026;51.494;11.974;2023-04-07T09:14:35;9.93;;;7.80;;
9970;SDS011;5026;51.494;11.974;2023-04-07T09:17:02;10.23;;;7.13;;
9970;SDS011;5026;51.494;11.974;2023-04-07T09:19:29;9.00;;;6.43;;
9970;SDS011;5026;51.494;11.974;2023-04-07T09:21:56;9.60;;;6.87;;
9970;SDS011;5026;51.494;11.974;2023-04-07T09:24:24;9.67;;;6.87;;
9970;SDS011;5026;51.494;11.974;2023-04-07T09:29:46;14.60;;;6.90;;
9970;SDS011;5026;51.494;11.974;2023-04-07T09:32:15;12.47;;;6.70;;
9970;SDS011;5026;51.494;11.974;2023-04-07T09:35:02;10.13;;;6.97;;
9970;SDS011;5026;51.494;11.974;2023-04-07T09:37:30;13.07;;;6.97;;
9970;SDS011;5026;51.494;11.974;2023-04-07T09:39:56;10.05;;;6.95;;
9970;SDS011;5026;51.494;11.974;2023-04-07T09:42:25;10.07;;;7.35;;
9970;SDS011;5026;51.494;11.974;2023-04-07T09:44:57;10.80;;;6.30;;
9970;SDS011;5026;51.494;11.974;2023-04-07T09:47:25;10.27;;;6.35;;
9970;SDS011;5026;51.494;11.974;2023-04-07T09:49:54;9.80;;;5.90;;
9970;SDS011;5026;51.494;11.974;2023-04-07T09:52:24;8.48;;;5.90;;
9970;SDS011;5026;51.494;11.974;2023-04-07T09:55:12;5.75;;;4.78;;
9970;SDS011;5026;51.494;11.974;2023-04-07T09:57:40;11.10;;;6.10;;
9970;SDS011;5026;51.494;11.974;2023-04-07T10:00:09;8.75;;;5.88;;
9970;SDS011;5026;51.494;11.974;2023-04-07T10:02:37;6.72;;;5.38;;
9970;SDS011;5026;51.494;11.974;2023-04-07T10:05:04;7.00;;;5.10;;
9970;SDS011;5026;51.494;11.974;2023-04-07T10:07:32;9.25;;;6.10;;
9970;SDS011;5026;51.494;11.974;2023-04-07T10:10:00;8.63;;;5.88;;
9970;SDS011;5026;51.494;11.974;2023-04-07T10:12:27;10.05;;;6.10;;
9970;SDS011;5026;51.494;11.974;2023-04-07T10:14:56;8.65;;;6.35;;
9970;SDS011;5026;51.494;11.974;2023-04-07T10:17:25;10.57;;;6.13;;
9970;SDS011;5026;51.494;11.974;2023-04-07T10:19:53;12.82;;;8.15;;
9970;SDS011;5026;51.494;11.974;2023-04-07T10:22:23;14.50;;;7.80;;
9970;SDS011;5026;51.494;11.974;2023-04-07T10:24:53;10.30;;;6.67;;
9970;SDS011;5026;51.494;11.974;2023-04-07T10:27:24;9.53;;;6.60;;
9970;SDS011;5026;51.494;11.974;2023-04-07T10:29:56;9.90;;;7.10;;
9970;SDS011;5026;51.494;11.974;2023-04-07T10:32:25;13.00;;;7.83;;
9970;SDS011;5026;51.494;11.974;2023-04-07T10:34:55;11.80;;;7.73;;
9970;SDS011;5026;51.494;11.974;2023-04-07T10:37:24;10.50;;;6.77;;
9970;SDS011;5026;51.494;11.974;2023-04-07T10:42:52;10.63;;;7.47;;
9970;SDS011;5026;51.494;11.974;2023-04-07T10:48:18;10.47;;;6.77;;
9970;SDS011;5026;51.494;11.974;2023-04-07T10:51:10;10.93;;;8.37;;
9970;SDS011;5026;51.494;11.974;2023-04-07T10:53:46;9.97;;;7.23;;
9970;SDS011;5026;51.494;11.974;2023-04-07T10:59:39;12.03;;;7.60;;
9970;SDS011;5026;51.494;11.974;2023-04-07T11:02:29;13.73;;;7.50;;
9970;SDS011;5026;51.494;11.974;2023-04-07T11:04:59;9.63;;;7.00;;
9970;SDS011;5026;51.494;11.974;2023-04-07T11:07:42;10.53;;;7.30;;
9970;SDS011;5026;51.494;11.974;2023-04-07T11:10:11;10.23;;;7.40;;
9970;SDS011;5026;51.494;11.974;2023-04-07T11:12:39;10.33;;;6.77;;
9970;SDS011;5026;51.494;11.974;2023-04-07T11:15:16;11.63;;;7.13;;
9970;SDS011;5026;51.494;11.974;2023-04-07T11:17:43;12.00;;;7.97;;
9970;SDS011;5026;51.494;11.974;2023-04-07T11:20:12;12.83;;;7.60;;
9970;SDS011;5026;51.494;11.974;2023-04-07T11:22:39;11.70;;;6.57;;
9970;SDS011;5026;51.494;11.974;2023-04-07T11:25:19;12.43;;;7.18;;
9970;SDS011;5026;51.494;11.974;2023-04-07T11:27:47;11.30;;;6.72;;
9970;SDS011;5026;51.494;11.974;2023-04-07T11:30:14;12.73;;;6.40;;
9970;SDS011;5026;51.494;11.974;2023-04-07T11:32:46;11.57;;;6.57;;
9970;SDS011;5026;51.494;11.974;2023-04-07T11:35:16;11.30;;;7.70;;
9970;SDS011;5026;51.494;11.974;2023-04-07T11:37:43;12.30;;;7.63;;
9970;SDS011;5026;51.494;11.974;2023-04-07T11:40:11;9.77;;;6.27;;
9970;SDS011;5026;51.494;11.974;2023-04-07T11:42:41;9.70;;;7.17;;
9970;SDS011;5026;51.494;11.974;2023-04-07T11:45:14;8.93;;;6.07;;
9970;SDS011;5026;51.494;11.974;2023-04-07T11:47:42;8.73;;;6.25;;
9970;SDS011;5026;51.494;11.974;2023-04-07T11:50:10;9.63;;;6.93;;
9970;SDS011;5026;51.494;11.974;2023-04-07T11:52:42;11.70;;;6.50;;
9970;SDS011;5026;51.494;11.974;2023-04-07T11:55:16;9.45;;;6.35;;
9970;SDS011;5026;51.494;11.974;2023-04-07T11:57:45;10.10;;;6.43;;
9970;SDS011;5026;51.494;11.974;2023-04-07T12:00:15;9.77;;;6.00;;
9970;SDS011;5026;51.494;11.974;2023-04-07T12:02:42;11.07;;;7.43;;
9970;SDS011;5026;51.494;11.974;2023-04-07T12:05:09;9.23;;;6.40;;
9970;SDS011;5026;51.494;11.974;2023-04-07T12:07:36;11.10;;;6.20;;
9970;SDS011;5026;51.494;11.974;2023-04-07T12:10:18;8.47;;;6.40;;
9970;SDS011;5026;51.494;11.974;2023-04-07T12:12:46;9.60;;;6.40;;
9970;SDS011;5026;51.494;11.974;2023-04-07T12:15:14;8.13;;;5.47;;
9970;SDS011;5026;51.494;11.974;2023-04-07T12:17:43;9.80;;;6.17;;
9970;SDS011;5026;51.494;11.974;2023-04-07T12:20:11;9.30;;;6.10;;
9970;SDS011;5026;51.494;11.974;2023-04-07T12:22:39;8.20;;;5.80;;
9970;SDS011;5026;51.494;11.974;2023-04-07T12:25:06;9.97;;;6.60;;
9970;SDS011;5026;51.494;11.974;2023-04-07T12:27:35;9.20;;;5.80;;
9970;SDS011;5026;51.494;11.974;2023-04-07T12:30:02;8.87;;;5.20;;
9970;SDS011;5026;51.494;11.974;2023-04-07T12:32:29;7.50;;;5.73;;
9970;SDS011;5026;51.494;11.974;2023-04-07T12:34:57;9.40;;;6.57;;
9970;SDS011;5026;51.494;11.974;2023-04-07T12:37:23;10.27;;;5.77;;
9970;SDS011;5026;51.494;11.974;2023-04-07T12:39:51;8.40;;;5.50;;
9970;SDS011;5026;51.494;11.974;2023-04-07T12:42:18;8.03;;;5.30;;
9970;SDS011;5026;51.494;11.974;2023-04-07T12:44:46;7.87;;;5.40;;
9970;SDS011;5026;51.494;11.974;2023-04-07T12:47:13;8.40;;;5.10;;
9970;SDS011;5026;51.494;11.974;2023-04-07T12:49:40;8.40;;;5.57;;
9970;SDS011;5026;51.494;11.974;2023-04-07T12:52:07;7.73;;;5.50;;
9970;SDS011;5026;51.494;11.974;2023-04-07T12:54:34;6.40;;;5.27;;
9970;SDS011;5026;51.494;11.974;2023-04-07T12:57:02;6.57;;;5.23;;
9970;SDS011;5026;51.494;11.974;2023-04-07T12:59:29;8.43;;;5.53;;
9970;SDS011;5026;51.494;11.974;2023-04-07T13:01:57;9.83;;;5.67;;
9970;SDS011;5026;51.494;11.974;2023-04-07T13:04:24;7.20;;;5.50;;
9970;SDS011;5026;51.494;11.974;2023-04-07T13:06:54;7.77;;;5.50;;
9970;SDS011;5026;51.494;11.974;2023-04-07T13:09:21;8.23;;;5.00;;
9970;SDS011;5026;51.494;11.974;2023-04-07T13:11:48;9.27;;;5.70;;
9970;SDS011;5026;51.494;11.974;2023-04-07T13:14:15;8.50;;;5.13;;
9970;SDS011;5026;51.494;11.974;2023-04-07T13:16:42;7.07;;;5.47;;
9970;SDS011;5026;51.494;11.974;2023-04-07T13:19:10;7.97;;;5.17;;
9970;SDS011;5026;51.494;11.974;2023-04-07T13:21:37;10.23;;;5.33;;
9970;SDS011;5026;51.494;11.974;2023-04-07T13:24:04;8.07;;;5.10;;
9970;SDS011;5026;51.494;11.974;2023-04-07T13:26:31;8.67;;;5.23;;
9970;SDS011;5026;51.494;11.974;2023-04-07T13:28:58;7.30;;;5.20;;
9970;SDS011;5026;51.494;11.974;2023-04-07T13:31:25;7.20;;;5.40;;
9970;SDS011;5026;51.494;11.974;2023-04-07T13:33:52;7.97;;;4.87;;
9970;SDS011;5026;51.494;11.974;2023-04-07T13:36:21;6.50;;;4.90;;
9970;SDS011;5026;51.494;11.974;2023-04-07T13:38:48;6.37;;;4.67;;
9970;SDS011;5026;51.494;11.974;2023-04-07T13:41:14;8.00;;;4.63;;
9970;SDS011;5026;51.494;11.974;2023-04-07T13:43:41;7.00;;;4.80;;
9970;SDS011;5026;51.494;11.974;2023-04-07T13:46:11;7.33;;;4.57;;
9970;SDS011;5026;51.494;11.974;2023-04-07T13:48:40;6.20;;;4.90;;
9970;SDS011;5026;51.494;11.974;2023-04-07T13:51:07;9.70;;;4.73;;
9970;SDS011;5026;51.494;11.974;2023-04-07T13:53:36;9.83;;;5.00;;
9970;SDS011;5026;51.494;11.974;2023-04-07T13:56:03;7.43;;;5.20;;
9970;SDS011;5026;51.494;11.974;2023-04-07T13:58:32;7.67;;;5.03;;
9970;SDS011;5026;51.494;11.974;2023-04-07T14:00:59;6.70;;;5.00;;
9970;SDS011;5026;51.494;11.974;2023-04-07T14:03:26;6.70;;;4.60;;
9970;SDS011;5026;51.494;11.974;2023-04-07T14:05:53;6.10;;;4.60;;
9970;SDS011;5026;51.494;11.974;2023-04-07T14:08:24;7.27;;;4.47;;
9970;SDS011;5026;51.494;11.974;2023-04-07T14:10:53;7.50;;;5.20;;
9970;SDS011;5026;51.494;11.974;2023-04-07T14:13:20;7.73;;;5.00;;
9970;SDS011;5026;51.494;11.974;2023-04-07T14:15:47;6.27;;;4.90;;
9970;SDS011;5026;51.494;11.974;2023-04-07T14:18:17;8.00;;;5.17;;
9970;SDS011;5026;51.494;11.974;2023-04-07T14:20:44;8.73;;;5.87;;
9970;SDS011;5026;51.494;11.974;2023-04-07T14:23:12;9.87;;;5.93;;
9970;SDS011;5026;51.494;11.974;2023-04-07T14:25:38;7.20;;;5.33;;
9970;SDS011;5026;51.494;11.974;2023-04-07T14:28:07;7.30;;;5.20;;
9970;SDS011;5026;51.494;11.974;2023-04-07T14:30:34;7.50;;;4.97;;
9970;SDS011;5026;51.494;11.974;2023-04-07T14:33:03;7.82;;;4.93;;
9970;SDS011;5026;51.494;11.974;2023-04-07T14:35:30;8.97;;;5.37;;
9970;SDS011;5026;51.494;11.974;2023-04-07T14:37:57;7.73;;;5.30;;
9970;SDS011;5026;51.494;11.974;2023-04-07T14:40:24;7.20;;;5.43;;
9970;SDS011;5026;51.494;11.974;2023-04-07T14:42:51;8.70;;;5.17;;
9970;SDS011;5026;51.494;11.974;2023-04-07T14:45:19;7.33;;;5.27;;
9970;SDS011;5026;51.494;11.974;2023-04-07T14:47:48;8.87;;;5.90;;
9970;SDS011;5026;51.494;11.974;2023-04-07T14:50:15;8.70;;;5.37;;
9970;SDS011;5026;51.494;11.974;2023-04-07T14:52:42;9.07;;;5.30;;
9970;SDS011;5026;51.494;11.974;2023-04-07T14:55:09;8.00;;;5.50;;
9970;SDS011;5026;51.494;11.974;2023-04-07T14:57:37;6.90;;;5.77;;
9970;SDS011;5026;51.494;11.974;2023-04-07T15:00:04;8.70;;;5.87;;
9970;SDS011;5026;51.494;11.974;2023-04-07T15:02:34;11.17;;;5.60;;
9970;SDS011;5026;51.494;11.974;2023-04-07T15:05:01;7.53;;;5.43;;
9970;SDS011;5026;51.494;11.974;2023-04-07T15:07:28;10.20;;;6.50;;